Aérodrome :
LOGIN :

S'inscrire | Disclaimer

   EN    FR    IT 

 










Légende :    VFR   VFR Marginal   IFR   IFR Intensif   IFR Très Intensif
Visi : 
Plafond : 
>= 8 km
>= 3000ft
5 à 8 km
1000 à 3000 ft
1500m à 5 km
500 à 1000 ft
800 à 1500m
200 à 500 ft
< 800m
< 200 ft
Symboles :   Orages  Brouillard  Fortes neiges  Fortes précipitations  Vent > 20 kt
SIGMETs :   Divers  Orages  Givrage  Turbulence  Onde Orograph.  Cendres Volcan.







- Altitude de l'aérodrome : 74 ft
- Code IATA : MRS
- Voir les cartes d'approche


LFML - Marseille / Marignane

DERNIER METAR :
  • 132030Z AUTO 11009KT 9999 SCT042 OVC049 09/03 Q1008 NOSIG

METARs EXPIRÉS :
  • 132000Z AUTO 10013KT 9999 OVC049 09/03 Q1008 TEMPO 09018G28KT RA
  • 131930Z AUTO 10013KT 9999 OVC049 09/03 Q1007 TEMPO 09018G28KT RA
  • 131900Z AUTO 10013KT 9999 OVC049 08/03 Q1007 TEMPO 09018G28KT RA
  • 131830Z AUTO 10013KT 070V140 9999 OVC050 08/03 Q1007 TEMPO 09018G28KT RA
  • 131800Z AUTO 09013KT 050V120 9999 OVC050 08/04 Q1006 TEMPO 09018G28KT RA

TAF TAF LFML
Valide du 13 à 21h jusqu'au 15 à 03h UTC


132000Z 1321/1503 08012KT CAVOK TX10/1413Z TN05/1406Z
BECMG 1402/1404 35010KT
BECMG 1411/1413 CAVOK
BECMG 1416/1418 34015G25KT
ATIS : +33 4 42 31 15 15
Pas de NOTAMs connus pour ce terrain.
2 SIGMETs publiés pour la FIR Marseille (LFMM) :
 
Givrage fort
LFMM SIGMET 7 VALID 132045/140045 LFPW
LFMM MARSEILLE FIR/UIR SEV ICE OBS AT 2100Z WI N4330 E00245 - N4445 E00245 - N4445 E00430 - N4400 E00430 - N4330 E00245 FL100/200 STNR NC=
Givrage fort
LFMM SIGMET 6 VALID 131900/132300 LFPW
LFMM MARSEILLE FIR/UIR SEV ICE OBS AT 1900Z SE OF LINE N3900 E00615 - N4330 E00830 FL170/240 MOV E 5KT NC=



MET'MAP, la Météo Aéronautique d'un coup d'oeil ! - Copyright ORBIFLY Décembre 2007 - Disclaimer

ORBIFLY MET'MAP TEAM :

Programmation & Développement : Alexandra Zaïnal
Conception & Développement : Baudouin d'Aumeries
Co-Programmation & Développement : Marc-Olivier Méhu
Soutien technique & logistique : Manuel Goepfert

Contact : metmap@orbifly.com




SOURCES & CREDITS :

   NOAA